Terminal Aerodrome Forecast
Issued by NWS Cleveland, OH

Home | Current Version | Previous Version | Graphics & Text | Print | Product List | Glossary On
Versions: 1 2 3 4 5 6 7 8 9 10 11 12 13 14 15 16 17 18 19 20
000
FTUS41 KCLE 241700
TAFMFD
TAF
KMFD 241740Z 2418/2518 12007KT P6SM BKN030
     FM242000 14005KT P6SM SCT035
     FM250600 16003KT 4SM BR SCT030 BKN080
     FM250900 16003KT 1SM BR BKN003
     FM251300 16003KT 4SM BR BKN005
     FM251500 16005KT P6SM BKN015=

USA.gov is the U.S. government's official web portal to all federal, state and local government web resources and services.